Time;durP1;ratioP1;P1;durP2;ratioP2;P2;SDS_P1;SDS_P2;PMS_P1;PMS_P2;Temp;Humidity;BMP_temperature;BMP_pressure;BME280_temperature;BME280_humidity;BME280_pressure;Samples;Min_cycle;Max_cycle;Signal;HPM_P1;HPM_P2
2023/07/17 00:01:33;;;;;;;8.63;3.80;;;17.10;99.90;;;;;;5052543;28;20056;-72
2023/07/17 00:03:59;;;;;;;5.40;3.55;;;17.10;99.90;;;;;;5052967;28;20466;-69
2023/07/17 00:06:25;;;;;;;6.60;3.17;;;17.10;99.90;;;;;;5034783;28;20515;-70
2023/07/17 00:08:50;;;;;;;5.20;3.30;;;17.00;99.90;;;;;;5034907;28;20049;-70
2023/07/17 00:11:16;;;;;;;4.03;3.40;;;17.00;99.90;;;;;;5052743;28;20049;-70
2023/07/17 00:13:42;;;;;;;4.38;3.05;;;17.10;99.90;;;;;;5052415;28;20530;-72
2023/07/17 00:16:08;;;;;;;6.55;3.15;;;17.10;99.90;;;;;;5052414;28;20052;-68
2023/07/17 00:18:34;;;;;;;5.32;3.63;;;17.10;99.90;;;;;;5034677;28;20045;-68
2023/07/17 00:21:04;;;;;;;4.78;3.38;;;17.10;99.90;;;;;;5052425;28;20131;-71
2023/07/17 00:23:30;;;;;;;6.35;3.35;;;17.00;99.90;;;;;;5052327;28;20120;-70
2023/07/17 00:25:56;;;;;;;5.80;2.95;;;17.00;99.90;;;;;;5052588;28;20563;-70
2023/07/17 00:28:21;;;;;;;10.35;3.90;;;17.10;99.90;;;;;;5052195;28;20040;-69
2023/07/17 00:30:47;;;;;;;5.53;2.88;;;17.00;99.90;;;;;;5052291;28;20110;-69
2023/07/17 00:33:13;;;;;;;6.85;3.70;;;17.10;99.90;;;;;;5052273;28;20114;-70
2023/07/17 00:35:39;;;;;;;6.47;3.35;;;17.00;99.90;;;;;;5052227;28;20538;-67
2023/07/17 00:38:04;;;;;;;6.70;4.05;;;17.10;99.90;;;;;;5038535;28;20051;-69
2023/07/17 00:40:30;;;;;;;4.93;3.80;;;17.00;99.90;;;;;;5056254;28;20047;-69
2023/07/17 00:43:00;;;;;;;6.13;3.78;;;17.00;99.90;;;;;;5038738;28;20048;-70
2023/07/17 00:45:29;;;;;;;6.50;4.13;;;17.00;99.90;;;;;;5038541;28;20056;-71
2023/07/17 00:47:55;;;;;;;8.32;3.60;;;17.00;99.90;;;;;;5022506;28;20059;-73
2023/07/17 00:50:21;;;;;;;5.40;3.88;;;17.00;99.90;;;;;;5038230;28;20123;-68
2023/07/17 00:52:47;;;;;;;7.43;4.00;;;17.00;99.90;;;;;;5038387;28;20084;-68
2023/07/17 00:55:14;;;;;;;5.93;3.92;;;16.90;99.90;;;;;;5055914;28;20487;-70
2023/07/17 00:57:40;;;;;;;10.48;4.65;;;16.70;99.90;;;;;;5055970;28;20116;-69
2023/07/17 01:00:08;;;;;;;8.65;4.15;;;16.90;99.90;;;;;;5055780;28;20044;-71
2023/07/17 01:02:36;;;;;;;10.60;3.67;;;16.80;99.90;;;;;;5055670;28;20053;-72
2023/07/17 01:05:02;;;;;;;11.48;4.28;;;16.70;99.90;;;;;;5038096;28;20187;-69
2023/07/17 01:07:27;;;;;;;8.18;4.40;;;16.70;99.90;;;;;;5056180;28;20072;-71
2023/07/17 01:09:53;;;;;;;7.55;4.38;;;16.70;99.90;;;;;;5055605;28;20048;-69
2023/07/17 01:12:19;;;;;;;7.38;3.97;;;16.60;99.90;;;;;;5037994;28;20130;-70
2023/07/17 01:14:45;;;;;;;12.48;4.70;;;16.60;99.90;;;;;;5037592;28;20454;-70
2023/07/17 01:17:10;;;;;;;6.78;3.70;;;16.60;99.90;;;;;;5055321;28;20051;-71
2023/07/17 01:19:36;;;;;;;7.55;4.28;;;16.60;99.90;;;;;;5055712;28;20037;-71
2023/07/17 01:22:11;;;;;;;7.60;4.03;;;16.60;99.90;;;;;;5055535;28;20045;-69
2023/07/17 01:24:36;;;;;;;9.05;4.43;;;16.50;99.90;;;;;;5055679;28;20064;-71
2023/07/17 01:27:02;;;;;;;7.43;3.83;;;16.50;99.90;;;;;;5055975;28;20049;-69
2023/07/17 01:29:28;;;;;;;6.13;4.22;;;16.50;99.90;;;;;;5055314;28;20405;-72
2023/07/17 01:31:53;;;;;;;9.13;3.85;;;16.50;99.90;;;;;;5055363;28;20095;-69
2023/07/17 01:34:19;;;;;;;7.32;3.45;;;16.50;99.90;;;;;;5037730;28;20048;-70
2023/07/17 01:36:45;;;;;;;8.60;4.25;;;16.50;99.90;;;;;;5055514;28;20097;-69
2023/07/17 01:39:10;;;;;;;6.47;4.03;;;16.50;99.90;;;;;;5055587;28;20059;-71
2023/07/17 01:41:36;;;;;;;4.40;3.05;;;16.40;99.90;;;;;;5037736;28;20492;-69
2023/07/17 01:44:02;;;;;;;7.78;4.20;;;16.40;99.90;;;;;;5055081;28;20469;-71
2023/07/17 01:46:27;;;;;;;6.85;3.90;;;16.40;99.90;;;;;;5036967;28;20485;-69
2023/07/17 01:48:54;;;;;;;6.28;3.30;;;16.40;99.90;;;;;;5054761;28;20044;-69
2023/07/17 01:51:20;;;;;;;5.57;3.22;;;16.40;99.90;;;;;;5037246;28;20056;-71
2023/07/17 01:53:46;;;;;;;5.15;3.75;;;16.30;99.90;;;;;;5054940;28;20048;-71
2023/07/17 01:56:12;;;;;;;8.95;3.92;;;16.30;99.90;;;;;;5055146;28;20048;-70
2023/07/17 01:58:37;;;;;;;8.02;4.40;;;16.30;99.90;;;;;;5054957;28;20051;-69
2023/07/17 02:01:03;;;;;;;4.15;2.80;;;16.30;99.90;;;;;;5055111;28;20041;-70
2023/07/17 02:03:30;;;;;;;5.68;3.25;;;16.10;99.90;;;;;;5036799;28;20065;-69
2023/07/17 02:05:56;;;;;;;7.82;3.03;;;16.10;99.90;;;;;;5055024;28;20120;-72
2023/07/17 02:08:21;;;;;;;3.85;3.03;;;16.10;99.90;;;;;;5055112;28;20084;-70
2023/07/17 02:10:50;;;;;;;5.30;3.05;;;15.20;99.90;;;;;;5054532;28;20566;-72
2023/07/17 02:13:16;;;;;;;4.95;2.70;;;16.00;99.90;;;;;;5054491;28;20049;-71
2023/07/17 02:15:41;;;;;;;8.88;3.78;;;16.00;99.90;;;;;;5054443;28;20056;-69
2023/07/17 02:18:07;;;;;;;8.93;2.90;;;15.90;99.90;;;;;;5054135;28;20048;-70
2023/07/17 02:20:33;;;;;;;4.05;2.40;;;15.90;99.90;;;;;;5054435;28;20041;-69
2023/07/17 02:22:59;;;;;;;5.72;2.83;;;15.80;99.90;;;;;;5054263;28;20478;-70
2023/07/17 02:25:24;;;;;;;4.65;2.40;;;15.80;99.90;;;;;;5036794;28;20465;-70
2023/07/17 02:27:50;;;;;;;4.70;2.70;;;15.80;99.90;;;;;;5054201;28;20179;-71
2023/07/17 02:30:16;;;;;;;6.40;2.67;;;15.70;99.90;;;;;;5054049;28;20045;-70
2023/07/17 02:32:41;;;;;;;3.90;2.92;;;15.70;99.90;;;;;;5036459;28;20044;-69
2023/07/17 02:35:08;;;;;;;4.32;2.67;;;15.60;99.90;;;;;;5053716;28;20128;-69
2023/07/17 02:37:34;;;;;;;5.18;2.42;;;15.60;99.90;;;;;;5037052;28;20053;-69
2023/07/17 02:40:00;;;;;;;4.13;2.95;;;15.60;99.90;;;;;;5036382;28;20037;-72
2023/07/17 02:42:26;;;;;;;8.23;3.13;;;15.60;99.90;;;;;;5053940;28;20535;-72
2023/07/17 02:44:52;;;;;;;6.45;2.63;;;15.50;99.90;;;;;;5036901;28;20072;-68
2023/07/17 02:47:17;;;;;;;5.10;2.95;;;15.50;99.90;;;;;;5036122;28;20044;-70
2023/07/17 02:49:43;;;;;;;5.30;2.70;;;15.50;99.90;;;;;;5053800;28;20041;-71
2023/07/17 02:52:09;;;;;;;6.50;2.67;;;15.50;99.90;;;;;;5054424;28;20052;-69
2023/07/17 02:54:37;;;;;;;5.93;2.60;;;15.40;99.90;;;;;;5053724;28;20037;-70
2023/07/17 02:57:04;;;;;;;5.78;2.80;;;15.40;99.90;;;;;;5053700;28;20055;-71
2023/07/17 02:59:30;;;;;;;7.68;2.67;;;15.40;99.90;;;;;;5052876;28;20202;-69
2023/07/17 03:01:56;;;;;;;4.53;2.90;;;15.30;99.90;;;;;;5053922;28;20465;-70
2023/07/17 03:04:21;;;;;;;4.78;2.65;;;15.30;99.90;;;;;;5035299;28;20044;-70
2023/07/17 03:06:48;;;;;;;7.53;3.42;;;15.30;99.90;;;;;;5036197;28;20057;-70
2023/07/17 03:09:14;;;;;;;3.13;2.30;;;15.30;99.90;;;;;;5052900;28;20129;-71
2023/07/17 03:11:39;;;;;;;5.85;2.55;;;15.30;99.90;;;;;;5035252;28;20068;-70
2023/07/17 03:14:05;;;;;;;4.63;2.70;;;15.20;99.90;;;;;;5053435;28;20174;-69
2023/07/17 03:16:31;;;;;;;7.28;3.10;;;15.20;99.90;;;;;;5036190;28;20055;-72
2023/07/17 03:18:57;;;;;;;4.80;2.70;;;15.20;99.90;;;;;;5053291;28;20045;-71
2023/07/17 03:21:22;;;;;;;4.00;2.47;;;15.20;99.90;;;;;;5053611;28;20072;-68
2023/07/17 03:23:48;;;;;;;6.20;2.83;;;15.20;99.90;;;;;;5053320;28;20487;-69
2023/07/17 03:26:14;;;;;;;8.07;3.03;;;15.20;99.90;;;;;;5035569;28;20491;-69
2023/07/17 03:28:40;;;;;;;4.40;2.47;;;15.10;99.90;;;;;;5052989;28;20056;-71
2023/07/17 03:31:07;;;;;;;5.85;2.95;;;15.10;99.90;;;;;;5053412;28;20496;-71
2023/07/17 03:33:34;;;;;;;5.13;3.13;;;15.10;99.90;;;;;;5035534;28;20064;-70
2023/07/17 03:35:59;;;;;;;4.90;2.72;;;15.10;99.90;;;;;;5052887;28;20045;-70
2023/07/17 03:38:25;;;;;;;5.13;2.70;;;15.10;99.90;;;;;;5052781;28;20103;-72
2023/07/17 03:40:51;;;;;;;5.90;2.72;;;15.10;99.90;;;;;;5052723;28;20482;-70
2023/07/17 03:43:16;;;;;;;8.43;3.15;;;15.10;99.90;;;;;;5053841;28;20045;-69
2023/07/17 03:45:42;;;;;;;5.35;3.13;;;15.00;99.90;;;;;;5054566;28;20052;-69
2023/07/17 03:48:08;;;;;;;6.10;2.78;;;15.00;99.90;;;;;;5054793;28;20106;-70
2023/07/17 03:50:33;;;;;;;5.28;2.95;;;15.00;99.90;;;;;;5054278;28;20041;-70
2023/07/17 03:52:59;;;;;;;6.65;3.35;;;15.00;99.90;;;;;;5053161;28;20084;-69
2023/07/17 03:55:25;;;;;;;4.55;2.90;;;15.00;99.90;;;;;;5052543;28;20063;-71
2023/07/17 03:57:50;;;;;;;5.45;2.97;;;15.00;99.90;;;;;;5052690;28;20476;-71
2023/07/17 04:00:16;;;;;;;4.53;2.88;;;15.00;99.90;;;;;;5052175;28;20037;-72
2023/07/17 04:02:43;;;;;;;5.10;3.10;;;15.00;99.90;;;;;;5052543;28;20068;-68
2023/07/17 04:05:10;;;;;;;9.02;3.17;;;15.00;99.90;;;;;;5052959;28;20127;-69
2023/07/17 04:07:36;;;;;;;7.32;2.80;;;14.90;99.90;;;;;;5052511;28;20088;-72
2023/07/17 04:10:03;;;;;;;10.60;3.40;;;14.90;99.90;;;;;;5052168;28;20045;-69
2023/07/17 04:12:29;;;;;;;8.55;3.65;;;15.00;99.90;;;;;;5034954;28;20048;-70
2023/07/17 04:14:55;;;;;;;6.32;3.17;;;15.00;99.90;;;;;;5052528;28;20120;-71
2023/07/17 04:17:20;;;;;;;6.70;3.40;;;15.00;99.90;;;;;;5034818;28;20088;-70
2023/07/17 04:19:46;;;;;;;7.53;3.05;;;14.90;99.90;;;;;;5052468;28;20052;-71
2023/07/17 04:22:12;;;;;;;6.47;3.63;;;15.00;99.90;;;;;;5034335;28;20066;-68
2023/07/17 04:24:38;;;;;;;6.65;3.00;;;15.00;99.90;;;;;;5052214;28;20102;-70
2023/07/17 04:27:03;;;;;;;9.48;3.38;;;15.00;99.90;;;;;;5052266;28;20128;-71
2023/07/17 04:29:29;;;;;;;6.65;2.97;;;15.00;99.90;;;;;;5052116;28;20044;-68
2023/07/17 04:31:55;;;;;;;6.25;3.75;;;15.10;99.90;;;;;;5052192;28;20125;-72
2023/07/17 04:34:20;;;;;;;4.25;3.10;;;15.10;99.90;;;;;;5051975;28;20064;-70
2023/07/17 04:36:46;;;;;;;8.35;3.35;;;15.20;99.90;;;;;;5052245;28;20095;-70
2023/07/17 04:39:12;;;;;;;8.05;3.30;;;15.20;99.90;;;;;;5034455;28;20489;-67
2023/07/17 04:41:39;;;;;;;4.60;2.70;;;15.30;99.90;;;;;;5052107;28;20060;-71
2023/07/17 04:44:04;;;;;;;10.30;3.60;;;15.30;99.90;;;;;;5034644;28;20151;-70
2023/07/17 04:46:30;;;;;;;8.43;3.50;;;15.30;99.90;;;;;;5052773;28;20168;-70
2023/07/17 04:48:57;;;;;;;9.35;3.72;;;15.40;99.90;;;;;;5052101;28;20537;-71
2023/07/17 04:51:23;;;;;;;9.27;3.30;;;15.40;99.90;;;;;;5034915;28;20359;-69
2023/07/17 04:53:48;;;;;;;5.57;3.60;;;15.50;99.90;;;;;;5052136;28;20052;-68
2023/07/17 04:56:14;;;;;;;9.68;3.80;;;15.50;99.90;;;;;;5052021;28;20507;-70
2023/07/17 04:58:40;;;;;;;4.57;3.15;;;15.60;99.90;;;;;;5052162;28;20056;-70
2023/07/17 05:01:05;;;;;;;12.57;3.63;;;15.70;99.90;;;;;;5051763;28;20049;-69
2023/07/17 05:03:31;;;;;;;8.07;3.08;;;15.70;99.90;;;;;;5051875;28;20393;-70
2023/07/17 05:05:57;;;;;;;6.65;3.20;;;15.70;99.90;;;;;;5051772;28;20037;-68
2023/07/17 05:08:25;;;;;;;7.22;3.22;;;15.80;99.90;;;;;;5034285;28;20124;-71
2023/07/17 05:10:59;;;;;;;6.78;3.35;;;15.80;99.90;;;;;;5051889;28;20115;-72
2023/07/17 05:13:26;;;;;;;13.30;3.95;;;15.90;99.90;;;;;;5052075;28;20533;-68
2023/07/17 05:15:52;;;;;;;4.65;2.85;;;16.00;99.90;;;;;;5052283;28;20045;-70
2023/07/17 05:18:19;;;;;;;6.22;3.22;;;16.00;99.90;;;;;;5051648;28;20048;-68
2023/07/17 05:20:46;;;;;;;8.23;3.50;;;16.10;99.90;;;;;;5051927;28;20060;-70
2023/07/17 05:23:12;;;;;;;14.35;3.42;;;16.10;99.90;;;;;;5054093;28;20049;-68
2023/07/17 05:25:38;;;;;;;8.40;3.58;;;16.20;99.90;;;;;;5055826;28;20098;-70
2023/07/17 05:28:04;;;;;;;5.93;3.53;;;16.30;99.90;;;;;;5055272;28;20478;-70
2023/07/17 05:30:33;;;;;;;7.22;3.80;;;16.30;99.90;;;;;;5055011;28;20041;-70
2023/07/17 05:32:59;;;;;;;7.57;3.40;;;16.40;99.90;;;;;;5055742;28;20048;-69
2023/07/17 05:35:25;;;;;;;7.18;3.40;;;16.40;99.90;;;;;;5055257;28;20484;-69
2023/07/17 05:37:50;;;;;;;8.07;3.38;;;16.50;99.90;;;;;;5021669;28;20136;-69
2023/07/17 05:40:16;;;;;;;9.60;3.70;;;16.50;99.90;;;;;;5055002;28;20099;-71
2023/07/17 05:42:42;;;;;;;3.60;3.10;;;16.60;99.90;;;;;;5055281;28;20052;-68
2023/07/17 05:45:09;;;;;;;9.07;3.55;;;16.60;99.90;;;;;;5055087;28;20037;-69
2023/07/17 05:47:36;;;;;;;4.15;3.13;;;16.60;99.90;;;;;;5055277;28;20037;-68
2023/07/17 05:50:01;;;;;;;7.97;3.60;;;16.70;99.90;;;;;;5054935;28;20095;-67
2023/07/17 05:52:27;;;;;;;7.72;4.07;;;16.70;99.90;;;;;;5055037;28;20049;-68
2023/07/17 05:54:53;;;;;;;9.25;3.55;;;16.70;99.90;;;;;;5054980;28;20049;-68
2023/07/17 05:57:18;;;;;;;9.07;4.03;;;16.70;99.90;;;;;;5055328;28;20450;-67
2023/07/17 05:59:44;;;;;;;8.15;4.07;;;16.80;99.90;;;;;;5054857;28;20136;-72
2023/07/17 06:02:10;;;;;;;6.60;4.00;;;16.90;99.90;;;;;;5054540;28;20044;-69
2023/07/17 06:04:35;;;;;;;7.20;3.75;;;17.00;99.90;;;;;;5037080;28;20064;-70
2023/07/17 06:07:01;;;;;;;7.22;4.57;;;17.30;99.90;;;;;;5054531;28;20052;-72
2023/07/17 06:09:27;;;;;;;9.13;3.72;;;17.40;99.90;;;;;;5037345;28;20049;-68
2023/07/17 06:11:53;;;;;;;5.68;3.50;;;17.40;99.90;;;;;;5037107;28;20105;-68
2023/07/17 06:14:18;;;;;;;8.63;3.25;;;17.40;99.90;;;;;;5036880;28;20563;-68
2023/07/17 06:16:44;;;;;;;8.10;3.78;;;17.60;99.90;;;;;;5054452;28;20044;-70
2023/07/17 06:19:10;;;;;;;5.38;3.30;;;17.70;99.90;;;;;;5054363;28;20041;-70
2023/07/17 06:21:35;;;;;;;10.52;3.67;;;17.80;99.90;;;;;;5036670;28;20103;-69
2023/07/17 06:24:01;;;;;;;18.13;4.72;;;17.80;99.90;;;;;;5054649;28;20128;-71
2023/07/17 06:26:27;;;;;;;7.03;3.92;;;17.80;99.90;;;;;;5054319;28;20397;-69
2023/07/17 06:28:52;;;;;;;8.75;3.80;;;17.90;99.90;;;;;;5054167;28;20136;-68
2023/07/17 06:31:18;;;;;;;5.85;3.67;;;18.10;99.90;;;;;;5054158;28;20044;-68
2023/07/17 06:33:44;;;;;;;7.38;3.67;;;18.60;99.90;;;;;;5054269;28;20079;-70
2023/07/17 06:36:09;;;;;;;8.57;3.13;;;19.60;99.90;;;;;;5054894;28;20354;-70
2023/07/17 06:38:35;;;;;;;6.32;3.47;;;20.70;99.90;;;;;;5019922;28;20056;-69
2023/07/17 06:41:01;;;;;;;6.47;3.25;;;21.00;99.90;;;;;;5054064;28;20098;-70
2023/07/17 06:43:27;;;;;;;5.68;3.60;;;21.10;99.90;;;;;;5036364;28;20052;-69
2023/07/17 06:45:52;;;;;;;9.35;4.18;;;21.20;99.90;;;;;;5036767;28;20461;-68
2023/07/17 06:48:18;;;;;;;6.60;4.50;;;21.30;99.90;;;;;;5054558;28;20460;-69
2023/07/17 06:50:45;;;;;;;7.45;3.72;;;21.50;99.90;;;;;;5054245;28;20040;-69
2023/07/17 06:53:11;;;;;;;10.30;4.68;;;21.90;99.90;;;;;;5036395;28;20053;-72
2023/07/17 06:55:37;;;;;;;7.78;3.88;;;22.20;99.90;;;;;;5036070;28;20052;-70
2023/07/17 06:58:02;;;;;;;6.30;3.35;;;22.70;99.90;;;;;;5003277;28;20052;-70
2023/07/17 07:00:28;;;;;;;6.85;3.28;;;22.90;98.50;;;;;;5054005;28;20064;-69
2023/07/17 07:02:54;;;;;;;6.47;3.53;;;23.10;99.90;;;;;;5053578;28;20076;-69
2023/07/17 07:05:20;;;;;;;7.20;2.92;;;23.60;99.90;;;;;;5053511;28;20043;-70
2023/07/17 07:07:46;;;;;;;8.02;4.68;;;24.10;99.60;;;;;;5053706;28;20060;-69
2023/07/17 07:10:11;;;;;;;7.20;3.10;;;24.80;98.90;;;;;;5053662;28;20500;-69
2023/07/17 07:12:37;;;;;;;6.43;3.00;;;24.20;96.60;;;;;;5019595;28;20052;-69
2023/07/17 07:15:05;;;;;;;7.07;3.28;;;24.40;97.80;;;;;;5053427;28;20551;-67
2023/07/17 07:17:31;;;;;;;6.55;3.72;;;24.60;97.40;;;;;;5035675;28;20469;-72
2023/07/17 07:19:56;;;;;;;11.23;4.00;;;24.10;97.50;;;;;;5053508;28;20136;-70
2023/07/17 07:22:22;;;;;;;6.10;3.75;;;23.20;97.90;;;;;;5053267;28;20051;-72
2023/07/17 07:24:48;;;;;;;7.10;3.80;;;22.60;98.80;;;;;;5053344;28;20087;-69
2023/07/17 07:27:13;;;;;;;7.80;3.38;;;22.30;99.20;;;;;;5052888;28;20596;-69
2023/07/17 07:29:39;;;;;;;10.07;4.20;;;21.90;99.30;;;;;;5035323;28;20118;-68
2023/07/17 07:32:05;;;;;;;7.65;3.80;;;21.70;99.40;;;;;;5035245;28;20102;-70
2023/07/17 07:34:32;;;;;;;7.35;3.97;;;21.90;99.00;;;;;;5035049;28;20051;-69
2023/07/17 07:36:58;;;;;;;6.88;3.75;;;22.00;99.20;;;;;;5053568;28;20052;-70
2023/07/17 07:39:23;;;;;;;8.25;4.38;;;21.60;99.20;;;;;;5037344;28;20115;-69
2023/07/17 07:41:49;;;;;;;7.35;3.53;;;21.50;99.60;;;;;;5055338;28;20490;-69
2023/07/17 07:44:15;;;;;;;4.13;2.97;;;21.90;99.60;;;;;;5055247;28;20045;-69
2023/07/17 07:46:40;;;;;;;6.30;3.72;;;22.30;98.90;;;;;;5035955;28;20053;-70
2023/07/17 07:49:06;;;;;;;6.90;3.42;;;23.00;97.90;;;;;;5052364;28;20045;-70
2023/07/17 07:51:32;;;;;;;7.60;3.83;;;23.60;96.80;;;;;;5035534;28;20088;-69
2023/07/17 07:53:57;;;;;;;7.10;3.17;;;23.20;97.20;;;;;;5053053;28;20084;-70
2023/07/17 07:56:23;;;;;;;6.60;3.50;;;22.90;97.70;;;;;;5052599;28;20481;-70
2023/07/17 07:58:50;;;;;;;7.47;3.50;;;22.60;97.40;;;;;;5052466;28;20458;-69
2023/07/17 08:01:16;;;;;;;7.75;3.88;;;22.60;97.60;;;;;;5052738;28;20049;-71
2023/07/17 08:03:41;;;;;;;8.18;3.88;;;22.60;97.40;;;;;;5034862;28;20547;-72
2023/07/17 08:06:07;;;;;;;5.80;3.97;;;22.60;97.80;;;;;;5052332;28;20056;-72
2023/07/17 08:08:33;;;;;;;6.78;4.03;;;22.00;98.50;;;;;;5052008;28;20110;-69
2023/07/17 08:10:58;;;;;;;10.57;4.53;;;21.50;99.20;;;;;;5052547;28;20475;-72
2023/07/17 08:13:24;;;;;;;6.38;4.07;;;20.80;99.90;;;;;;5052672;28;20470;-69
2023/07/17 08:15:50;;;;;;;9.65;4.43;;;20.30;99.90;;;;;;5052407;28;20083;-73
2023/07/17 08:18:16;;;;;;;7.80;4.05;;;19.70;99.90;;;;;;5034724;28;20053;-72
2023/07/17 08:20:42;;;;;;;11.45;4.43;;;19.40;99.90;;;;;;5052245;28;20049;-69
2023/07/17 08:23:08;;;;;;;9.27;5.10;;;19.30;99.90;;;;;;5052199;28;20057;-72
2023/07/17 08:25:35;;;;;;;10.13;4.55;;;19.30;99.90;;;;;;5019076;28;20142;-70
2023/07/17 08:28:00;;;;;;;8.93;4.38;;;19.30;99.90;;;;;;5052332;28;20049;-70
2023/07/17 08:30:26;;;;;;;10.07;5.25;;;19.70;99.90;;;;;;5052196;28;20045;-74
2023/07/17 08:32:52;;;;;;;12.48;5.07;;;20.50;99.90;;;;;;5034651;28;20049;-71
2023/07/17 08:35:18;;;;;;;7.53;5.88;;;21.30;99.90;;;;;;5052774;28;20044;-71
2023/07/17 08:37:43;;;;;;;9.25;5.18;;;22.30;99.90;;;;;;5034713;28;20053;-71
2023/07/17 08:40:12;;;;;;;9.48;4.80;;;23.30;99.90;;;;;;5052345;28;20037;-74
2023/07/17 08:42:43;;;;;;;8.98;4.28;;;24.30;99.90;;;;;;5034552;28;20045;-70
2023/07/17 08:45:09;;;;;;;7.97;4.35;;;25.20;99.90;;;;;;5034554;28;20049;-72
2023/07/17 08:47:37;;;;;;;7.57;4.38;;;24.30;99.80;;;;;;5051917;28;20087;-72
2023/07/17 08:50:04;;;;;;;8.57;4.13;;;23.40;99.90;;;;;;5051808;28;20116;-73
2023/07/17 08:52:32;;;;;;;7.82;3.38;;;22.90;99.90;;;;;;5052027;28;20049;-72
2023/07/17 08:54:58;;;;;;;8.45;3.90;;;22.20;99.90;;;;;;5052072;28;20172;-71
2023/07/17 08:57:26;;;;;;;5.43;3.92;;;21.80;99.90;;;;;;5053391;28;20459;-71
2023/07/17 08:59:51;;;;;;;4.88;3.58;;;21.40;99.90;;;;;;5055712;28;20045;-72
2023/07/17 09:02:19;;;;;;;8.05;3.72;;;21.20;99.90;;;;;;5055787;28;20376;-71
2023/07/17 09:04:44;;;;;;;6.90;4.13;;;21.00;99.90;;;;;;5056447;28;20056;-72
2023/07/17 09:07:10;;;;;;;5.47;3.78;;;21.60;99.90;;;;;;5055951;28;20403;-71
2023/07/17 09:09:36;;;;;;;4.70;3.30;;;22.10;99.90;;;;;;5055633;28;20091;-72
2023/07/17 09:12:09;;;;;;;6.95;2.83;;;22.20;99.90;;;;;;5055893;28;20432;-72
2023/07/17 09:14:36;;;;;;;5.55;3.70;;;21.60;99.90;;;;;;5037724;28;20485;-73
2023/07/17 09:17:07;;;;;;;6.50;3.25;;;21.20;99.90;;;;;;5037864;28;20045;-72
2023/07/17 09:19:34;;;;;;;4.22;3.03;;;20.90;99.90;;;;;;5055459;28;20048;-71
2023/07/17 09:22:05;;;;;;;6.28;3.30;;;20.60;99.90;;;;;;5037903;28;20049;-73
2023/07/17 09:24:36;;;;;;;6.13;3.05;;;20.60;99.90;;;;;;5055762;28;20056;-72
2023/07/17 09:27:07;;;;;;;7.38;3.22;;;21.20;99.90;;;;;;5055772;28;20057;-70
2023/07/17 09:29:33;;;;;;;7.53;3.58;;;22.10;99.90;;;;;;5037904;28;20120;-70
2023/07/17 09:32:19;;;;;;;5.32;2.97;;;22.70;99.40;;;;;;5055621;28;20077;-71
2023/07/17 09:35:01;;;;;;;4.78;3.03;;;23.20;96.10;;;;;;5037341;28;20377;-71
2023/07/17 09:37:31;;;;;;;5.80;2.92;;;23.60;97.30;;;;;;5055500;28;20049;-73
2023/07/17 09:40:00;;;;;;;4.13;2.00;;;24.10;97.60;;;;;;5054757;28;20509;-70
2023/07/17 09:42:26;;;;;;;5.63;3.55;;;24.30;96.10;;;;;;5054985;28;20053;-73
2023/07/17 09:44:53;;;;;;;3.65;2.33;;;24.80;97.10;;;;;;5037348;28;20041;-73
2023/07/17 09:47:20;;;;;;;4.40;2.17;;;24.50;95.90;;;;;;5055123;28;20526;-72
2023/07/17 09:49:50;;;;;;;6.55;2.42;;;24.10;95.80;;;;;;5054897;28;20120;-74
2023/07/17 09:52:17;;;;;;;5.35;2.85;;;23.90;95.20;;;;;;5054543;28;20404;-74
2023/07/17 09:54:44;;;;;;;6.70;2.40;;;24.00;95.70;;;;;;5054738;28;20041;-72
2023/07/17 09:57:18;;;;;;;4.72;2.40;;;24.00;95.70;;;;;;5054966;28;20155;-75
2023/07/17 09:59:48;;;;;;;5.32;2.60;;;23.40;93.40;;;;;;5054450;28;20458;-72
2023/07/17 10:02:18;;;;;;;6.28;2.47;;;22.70;94.50;;;;;;5037582;28;20049;-70
2023/07/17 10:04:53;;;;;;;4.90;3.00;;;22.20;95.10;;;;;;5054579;28;20075;-70
2023/07/17 10:07:19;;;;;;;3.55;2.55;;;22.00;95.80;;;;;;5054777;28;20378;-73
2023/07/17 10:09:47;;;;;;;6.07;3.70;;;21.90;95.70;;;;;;5054066;28;20123;-71
2023/07/17 10:12:13;;;;;;;7.93;2.90;;;22.30;95.80;;;;;;5036604;28;20132;-72
2023/07/17 10:14:41;;;;;;;8.45;2.97;;;23.20;96.30;;;;;;5054384;28;20055;-71
2023/07/17 10:17:23;;;;;;;3.97;2.13;;;23.60;94.70;;;;;;5054319;28;20053;-73
2023/07/17 10:19:49;;;;;;;3.03;2.15;;;23.90;93.00;;;;;;5054916;28;20067;-70
2023/07/17 10:22:15;;;;;;;3.40;2.20;;;23.80;94.80;;;;;;5054663;28;20493;-71
2023/07/17 10:24:41;;;;;;;4.18;2.17;;;23.80;94.40;;;;;;5054183;28;20049;-71
2023/07/17 10:27:08;;;;;;;4.43;2.15;;;24.10;93.30;;;;;;5054324;28;20045;-71
2023/07/17 10:29:44;;;;;;;5.85;2.03;;;24.40;94.60;;;;;;5053896;28;20033;-69
2023/07/17 10:32:14;;;;;;;3.28;2.22;;;24.50;91.70;;;;;;5036161;28;20055;-70
2023/07/17 10:34:51;;;;;;;3.05;1.98;;;24.80;93.60;;;;;;5037088;28;20047;-70
2023/07/17 10:37:43;;;;;;;6.57;3.13;;;24.30;91.30;;;;;;5053937;28;20041;-71
2023/07/17 10:40:28;;;;;;;4.57;2.10;;;24.50;91.00;;;;;;5015918;28;20056;-75
2023/07/17 10:42:54;;;;;;;3.80;2.13;;;24.70;92.70;;;;;;5036269;28;20477;-70
2023/07/17 10:45:20;;;;;;;5.38;2.00;;;24.60;93.20;;;;;;5053837;28;20045;-73
2023/07/17 10:47:50;;;;;;;4.35;1.98;;;24.50;93.00;;;;;;5053815;28;20048;-72
2023/07/17 10:50:18;;;;;;;3.72;1.70;;;24.60;92.20;;;;;;5053596;28;20041;-71
2023/07/17 10:52:44;;;;;;;5.05;2.50;;;24.90;91.80;;;;;;5053336;28;20531;-72
2023/07/17 10:55:09;;;;;;;4.28;2.35;;;25.10;91.60;;;;;;5053685;28;20123;-72
2023/07/17 10:57:37;;;;;;;4.53;2.22;;;25.00;91.50;;;;;;5053830;28;20043;-71
2023/07/17 11:00:04;;;;;;;3.63;1.65;;;24.90;92.30;;;;;;5035762;28;20057;-73
2023/07/17 11:02:30;;;;;;;4.40;2.20;;;24.90;92.50;;;;;;5019712;28;20072;-72
2023/07/17 11:04:57;;;;;;;2.47;1.70;;;24.80;91.80;;;;;;5053513;28;20103;-74
2023/07/17 11:07:24;;;;;;;5.05;2.03;;;24.80;91.10;;;;;;5053390;28;20515;-71
2023/07/17 11:09:50;;;;;;;5.70;2.03;;;24.70;91.40;;;;;;5053715;28;20095;-75
2023/07/17 11:12:19;;;;;;;2.63;1.85;;;24.70;91.60;;;;;;5053667;28;20045;-72
2023/07/17 11:14:44;;;;;;;4.95;2.65;;;24.70;92.10;;;;;;5018830;28;20049;-72
2023/07/17 11:17:12;;;;;;;2.30;1.85;;;24.60;91.90;;;;;;5053736;28;20079;-71
2023/07/17 11:19:37;;;;;;;5.03;1.77;;;24.50;92.00;;;;;;5018410;28;20057;-70
2023/07/17 11:22:04;;;;;;;4.68;2.20;;;24.60;90.70;;;;;;5052905;28;20047;-71
2023/07/17 11:24:30;;;;;;;5.80;2.03;;;24.40;91.40;;;;;;5035884;28;20045;-71
2023/07/17 11:26:58;;;;;;;3.58;2.22;;;24.30;90.60;;;;;;5035952;28;20045;-72
2023/07/17 11:29:24;;;;;;;3.25;2.45;;;24.20;90.10;;;;;;5036414;28;20060;-69
2023/07/17 11:31:56;;;;;;;6.35;2.13;;;24.30;91.10;;;;;;5055478;28;20049;-70
2023/07/17 11:34:22;;;;;;;2.65;1.98;;;24.30;90.70;;;;;;5055033;28;20627;-70
2023/07/17 11:36:48;;;;;;;3.13;2.08;;;24.10;91.00;;;;;;5055213;28;20059;-71
2023/07/17 11:39:19;;;;;;;3.88;2.20;;;23.90;91.10;;;;;;5036767;28;20045;-70
2023/07/17 11:41:55;;;;;;;5.03;2.38;;;23.90;91.20;;;;;;5052917;28;20045;-71
2023/07/17 11:44:32;;;;;;;5.15;2.30;;;23.60;91.30;;;;;;5052566;28;20040;-71
2023/07/17 11:47:06;;;;;;;3.67;1.90;;;23.40;91.50;;;;;;5052680;28;20113;-69
2023/07/17 11:49:34;;;;;;;3.85;2.38;;;23.50;92.10;;;;;;5052859;28;20049;-72
2023/07/17 11:52:00;;;;;;;3.28;2.30;;;23.70;92.30;;;;;;5052655;28;20052;-71
2023/07/17 11:54:38;;;;;;;4.95;2.03;;;23.70;90.80;;;;;;5052714;28;20052;-72
2023/07/17 11:57:04;;;;;;;4.80;2.22;;;23.50;90.40;;;;;;5052580;28;20132;-73
2023/07/17 11:59:30;;;;;;;3.88;2.33;;;23.30;91.20;;;;;;5052362;28;20052;-69
2023/07/17 12:01:56;;;;;;;4.40;2.17;;;23.40;91.70;;;;;;5052988;28;20049;-72
2023/07/17 12:04:32;;;;;;;5.25;2.35;;;23.50;91.90;;;;;;5052709;28;20419;-71
2023/07/17 12:07:00;;;;;;;3.33;2.53;;;23.80;92.90;;;;;;5034628;28;20051;-69
2023/07/17 12:09:26;;;;;;;4.40;2.13;;;23.90;92.30;;;;;;5052213;28;20048;-71
2023/07/17 12:11:52;;;;;;;3.85;2.30;;;24.00;92.20;;;;;;5052163;28;20049;-69
2023/07/17 12:14:18;;;;;;;3.42;2.25;;;24.00;92.40;;;;;;5052307;28;20117;-69
2023/07/17 12:16:45;;;;;;;3.58;2.20;;;24.10;92.20;;;;;;5052668;28;20106;-70
2023/07/17 12:19:11;;;;;;;2.63;1.73;;;24.00;92.20;;;;;;5052445;28;20045;-71
2023/07/17 12:21:37;;;;;;;3.78;1.98;;;23.90;92.60;;;;;;5052020;28;20041;-72
2023/07/17 12:24:03;;;;;;;4.97;2.38;;;23.90;92.00;;;;;;5052524;28;20049;-69
2023/07/17 12:26:28;;;;;;;3.35;1.73;;;24.00;91.80;;;;;;5052404;28;20556;-70
2023/07/17 12:28:54;;;;;;;2.95;1.58;;;24.30;91.60;;;;;;5051960;28;20045;-68
2023/07/17 12:31:20;;;;;;;3.20;1.65;;;24.20;90.60;;;;;;5054494;28;20084;-70
2023/07/17 12:33:45;;;;;;;2.63;1.30;;;24.20;90.20;;;;;;5040877;28;20045;-70
2023/07/17 12:36:11;;;;;;;2.22;1.50;;;24.10;90.10;;;;;;5059218;28;20049;-71
2023/07/17 12:38:37;;;;;;;4.32;2.08;;;24.20;90.30;;;;;;5058598;28;20419;-69
2023/07/17 12:41:02;;;;;;;2.03;1.70;;;24.20;90.50;;;;;;5059230;28;20128;-70
2023/07/17 12:43:28;;;;;;;2.72;1.83;;;24.20;89.50;;;;;;5059102;28;20141;-72